Terminal Aerodrome Forecast
Issued by NWS

Home | Current Version | Previous Version | Text Only | Print | Product List | Glossary Off
Versions: 1 2 3 4 5 6 7 8 9 10 11 12 13 14 15 16 17 18 19

000
FTUS43 KOAX 010546
TAFCDR
TAF
KCDR 010546Z 0106/0206 02010KT 4SM -SN SCT005 OVC015
     FM011000 36011KT 2SM BR OVC005
     FM011600 35008KT P6SM OVC015
     FM011900 34008KT P6SM SKC
     FM020000 VRB03KT P6SM SKC=

USA.gov is the U.S. government's official web portal to all federal, state and local government web resources and services.